sensor_id;sensor_type;location;lat;lon;timestamp;temperature;humidity
31729;DHT22;18309;43.658;1.312;2023-05-07T00:01:17;19.60;99.80
31729;DHT22;18309;43.658;1.312;2023-05-07T00:03:43;19.60;99.70
31729;DHT22;18309;43.658;1.312;2023-05-07T00:06:10;19.60;99.80
31729;DHT22;18309;43.658;1.312;2023-05-07T00:08:38;19.60;99.70
31729;DHT22;18309;43.658;1.312;2023-05-07T00:11:03;19.50;99.70
31729;DHT22;18309;43.658;1.312;2023-05-07T00:13:30;19.60;99.80
31729;DHT22;18309;43.658;1.312;2023-05-07T00:16:01;19.50;99.80
31729;DHT22;18309;43.658;1.312;2023-05-07T00:18:27;19.50;99.70
31729;DHT22;18309;43.658;1.312;2023-05-07T00:20:54;19.60;99.80
31729;DHT22;18309;43.658;1.312;2023-05-07T00:23:19;19.40;99.80
31729;DHT22;18309;43.658;1.312;2023-05-07T00:25:45;19.50;99.90
31729;DHT22;18309;43.658;1.312;2023-05-07T00:28:11;19.40;99.90
31729;DHT22;18309;43.658;1.312;2023-05-07T00:30:36;19.40;99.90
31729;DHT22;18309;43.658;1.312;2023-05-07T00:33:02;19.40;99.90
31729;DHT22;18309;43.658;1.312;2023-05-07T00:35:29;19.40;99.90
31729;DHT22;18309;43.658;1.312;2023-05-07T00:37:55;19.40;99.90
31729;DHT22;18309;43.658;1.312;2023-05-07T00:40:21;19.40;99.90
31729;DHT22;18309;43.658;1.312;2023-05-07T00:42:46;19.40;99.90
31729;DHT22;18309;43.658;1.312;2023-05-07T00:45:15;19.30;99.90
31729;DHT22;18309;43.658;1.312;2023-05-07T00:47:41;19.30;99.90
31729;DHT22;18309;43.658;1.312;2023-05-07T00:50:08;19.30;99.90
31729;DHT22;18309;43.658;1.312;2023-05-07T00:52:37;19.30;99.90
31729;DHT22;18309;43.658;1.312;2023-05-07T00:55:05;19.20;99.90
31729;DHT22;18309;43.658;1.312;2023-05-07T00:57:37;19.30;99.90
31729;DHT22;18309;43.658;1.312;2023-05-07T01:00:07;19.20;99.80
31729;DHT22;18309;43.658;1.312;2023-05-07T01:02:35;19.20;99.90
31729;DHT22;18309;43.658;1.312;2023-05-07T01:05:01;19.20;99.90
31729;DHT22;18309;43.658;1.312;2023-05-07T01:07:29;19.20;99.70
31729;DHT22;18309;43.658;1.312;2023-05-07T01:09:55;19.20;99.80
31729;DHT22;18309;43.658;1.312;2023-05-07T01:12:21;19.10;99.70
31729;DHT22;18309;43.658;1.312;2023-05-07T01:14:49;19.10;99.80
31729;DHT22;18309;43.658;1.312;2023-05-07T01:17:16;19.00;99.80
31729;DHT22;18309;43.658;1.312;2023-05-07T01:19:42;19.00;99.70
31729;DHT22;18309;43.658;1.312;2023-05-07T01:22:10;19.00;99.80
31729;DHT22;18309;43.658;1.312;2023-05-07T01:24:40;19.00;99.80
31729;DHT22;18309;43.658;1.312;2023-05-07T01:27:06;19.00;99.80
31729;DHT22;18309;43.658;1.312;2023-05-07T01:29:32;19.00;99.70
31729;DHT22;18309;43.658;1.312;2023-05-07T01:32:00;19.00;99.90
31729;DHT22;18309;43.658;1.312;2023-05-07T01:34:31;18.90;99.80
31729;DHT22;18309;43.658;1.312;2023-05-07T01:36:58;18.90;99.80
31729;DHT22;18309;43.658;1.312;2023-05-07T01:39:25;18.90;99.90
31729;DHT22;18309;43.658;1.312;2023-05-07T01:41:55;18.90;99.90
31729;DHT22;18309;43.658;1.312;2023-05-07T01:44:22;18.80;99.90
31729;DHT22;18309;43.658;1.312;2023-05-07T01:46:48;18.80;99.90
31729;DHT22;18309;43.658;1.312;2023-05-07T01:49:15;18.80;99.90
31729;DHT22;18309;43.658;1.312;2023-05-07T01:51:43;18.80;99.90
31729;DHT22;18309;43.658;1.312;2023-05-07T01:54:10;18.80;99.90
31729;DHT22;18309;43.658;1.312;2023-05-07T01:56:36;18.80;99.90
31729;DHT22;18309;43.658;1.312;2023-05-07T01:59:01;18.70;99.90
31729;DHT22;18309;43.658;1.312;2023-05-07T02:01:27;18.70;99.90
31729;DHT22;18309;43.658;1.312;2023-05-07T02:03:53;18.70;99.90
31729;DHT22;18309;43.658;1.312;2023-05-07T02:06:19;18.70;99.90
31729;DHT22;18309;43.658;1.312;2023-05-07T02:08:47;18.70;99.90
31729;DHT22;18309;43.658;1.312;2023-05-07T02:11:13;18.70;99.90
31729;DHT22;18309;43.658;1.312;2023-05-07T02:13:38;18.60;99.90
31729;DHT22;18309;43.658;1.312;2023-05-07T02:16:05;18.60;99.90
31729;DHT22;18309;43.658;1.312;2023-05-07T02:18:32;18.60;99.90
31729;DHT22;18309;43.658;1.312;2023-05-07T02:20:57;18.60;99.90
31729;DHT22;18309;43.658;1.312;2023-05-07T02:23:23;18.50;99.90
31729;DHT22;18309;43.658;1.312;2023-05-07T02:25:49;18.60;99.90
31729;DHT22;18309;43.658;1.312;2023-05-07T02:28:15;18.50;99.90
31729;DHT22;18309;43.658;1.312;2023-05-07T02:30:40;18.60;99.90
31729;DHT22;18309;43.658;1.312;2023-05-07T02:33:06;18.50;99.90
31729;DHT22;18309;43.658;1.312;2023-05-07T02:35:33;18.60;99.90
31729;DHT22;18309;43.658;1.312;2023-05-07T02:37:59;18.50;99.90
31729;DHT22;18309;43.658;1.312;2023-05-07T02:40:25;18.60;99.90
31729;DHT22;18309;43.658;1.312;2023-05-07T02:42:50;18.50;99.90
31729;DHT22;18309;43.658;1.312;2023-05-07T02:45:16;18.50;99.90
31729;DHT22;18309;43.658;1.312;2023-05-07T02:47:42;18.50;99.90
31729;DHT22;18309;43.658;1.312;2023-05-07T02:50:08;18.50;99.90
31729;DHT22;18309;43.658;1.312;2023-05-07T02:52:33;18.50;99.90
31729;DHT22;18309;43.658;1.312;2023-05-07T02:54:59;18.50;99.90
31729;DHT22;18309;43.658;1.312;2023-05-07T02:57:24;18.50;99.90
31729;DHT22;18309;43.658;1.312;2023-05-07T02:59:50;18.50;99.90
31729;DHT22;18309;43.658;1.312;2023-05-07T03:02:16;18.40;99.90
31729;DHT22;18309;43.658;1.312;2023-05-07T03:04:42;18.40;99.90
31729;DHT22;18309;43.658;1.312;2023-05-07T03:07:08;18.40;99.90
31729;DHT22;18309;43.658;1.312;2023-05-07T03:09:33;18.40;99.90
31729;DHT22;18309;43.658;1.312;2023-05-07T03:12:00;18.40;99.90
31729;DHT22;18309;43.658;1.312;2023-05-07T03:14:27;18.40;99.90
31729;DHT22;18309;43.658;1.312;2023-05-07T03:16:52;18.40;99.90
31729;DHT22;18309;43.658;1.312;2023-05-07T03:19:18;18.40;99.90
31729;DHT22;18309;43.658;1.312;2023-05-07T03:21:44;18.30;99.90
31729;DHT22;18309;43.658;1.312;2023-05-07T03:24:11;18.30;99.90
31729;DHT22;18309;43.658;1.312;2023-05-07T03:26:36;18.30;99.90
31729;DHT22;18309;43.658;1.312;2023-05-07T03:29:02;18.30;99.90
31729;DHT22;18309;43.658;1.312;2023-05-07T03:31:28;18.30;99.90
31729;DHT22;18309;43.658;1.312;2023-05-07T03:33:55;18.30;99.90
31729;DHT22;18309;43.658;1.312;2023-05-07T03:36:23;18.30;99.90
31729;DHT22;18309;43.658;1.312;2023-05-07T03:38:49;18.30;99.90
31729;DHT22;18309;43.658;1.312;2023-05-07T03:41:15;18.30;99.90
31729;DHT22;18309;43.658;1.312;2023-05-07T03:43:40;18.30;99.90
31729;DHT22;18309;43.658;1.312;2023-05-07T03:46:06;18.20;99.90
31729;DHT22;18309;43.658;1.312;2023-05-07T03:48:32;18.20;99.90
31729;DHT22;18309;43.658;1.312;2023-05-07T03:50:58;18.20;99.90
31729;DHT22;18309;43.658;1.312;2023-05-07T03:53:24;18.20;99.90
31729;DHT22;18309;43.658;1.312;2023-05-07T03:55:51;18.20;99.90
31729;DHT22;18309;43.658;1.312;2023-05-07T03:58:18;18.20;99.90
31729;DHT22;18309;43.658;1.312;2023-05-07T04:00:44;18.10;99.90
31729;DHT22;18309;43.658;1.312;2023-05-07T04:03:10;18.10;99.90
31729;DHT22;18309;43.658;1.312;2023-05-07T04:05:35;18.10;99.90
31729;DHT22;18309;43.658;1.312;2023-05-07T04:08:01;18.10;99.90
31729;DHT22;18309;43.658;1.312;2023-05-07T04:10:29;18.10;99.90
31729;DHT22;18309;43.658;1.312;2023-05-07T04:12:55;18.00;99.90
31729;DHT22;18309;43.658;1.312;2023-05-07T04:15:20;18.00;99.90
31729;DHT22;18309;43.658;1.312;2023-05-07T04:17:46;18.00;99.90
31729;DHT22;18309;43.658;1.312;2023-05-07T04:20:16;18.00;99.90
31729;DHT22;18309;43.658;1.312;2023-05-07T04:22:42;18.00;99.90
31729;DHT22;18309;43.658;1.312;2023-05-07T04:25:09;18.00;99.90
31729;DHT22;18309;43.658;1.312;2023-05-07T04:27:36;18.00;99.90
31729;DHT22;18309;43.658;1.312;2023-05-07T04:30:04;18.00;99.90
31729;DHT22;18309;43.658;1.312;2023-05-07T04:32:30;18.00;99.90
31729;DHT22;18309;43.658;1.312;2023-05-07T04:34:56;18.00;99.90
31729;DHT22;18309;43.658;1.312;2023-05-07T04:37:22;18.00;99.90
31729;DHT22;18309;43.658;1.312;2023-05-07T04:39:48;18.00;99.90
31729;DHT22;18309;43.658;1.312;2023-05-07T04:42:17;18.00;99.90
31729;DHT22;18309;43.658;1.312;2023-05-07T04:44:44;17.90;99.90
31729;DHT22;18309;43.658;1.312;2023-05-07T04:47:10;17.90;99.90
31729;DHT22;18309;43.658;1.312;2023-05-07T04:49:38;17.90;99.90
31729;DHT22;18309;43.658;1.312;2023-05-07T04:52:04;17.90;99.90
31729;DHT22;18309;43.658;1.312;2023-05-07T04:54:31;17.90;99.90
31729;DHT22;18309;43.658;1.312;2023-05-07T04:56:57;17.90;99.90
31729;DHT22;18309;43.658;1.312;2023-05-07T04:59:23;17.90;99.90
31729;DHT22;18309;43.658;1.312;2023-05-07T05:01:48;17.90;99.90
31729;DHT22;18309;43.658;1.312;2023-05-07T05:04:14;17.90;99.90
31729;DHT22;18309;43.658;1.312;2023-05-07T05:06:40;17.80;99.90
31729;DHT22;18309;43.658;1.312;2023-05-07T05:09:06;17.80;99.90
31729;DHT22;18309;43.658;1.312;2023-05-07T05:11:32;17.80;99.90
31729;DHT22;18309;43.658;1.312;2023-05-07T05:13:59;17.80;99.90
31729;DHT22;18309;43.658;1.312;2023-05-07T05:16:24;17.80;99.90
31729;DHT22;18309;43.658;1.312;2023-05-07T05:18:50;17.80;99.90
31729;DHT22;18309;43.658;1.312;2023-05-07T05:21:17;17.80;99.90
31729;DHT22;18309;43.658;1.312;2023-05-07T05:23:43;17.80;99.90
31729;DHT22;18309;43.658;1.312;2023-05-07T05:26:09;17.70;99.90
31729;DHT22;18309;43.658;1.312;2023-05-07T05:28:36;17.80;99.90
31729;DHT22;18309;43.658;1.312;2023-05-07T05:31:01;17.80;99.90
31729;DHT22;18309;43.658;1.312;2023-05-07T05:33:27;17.80;99.90
31729;DHT22;18309;43.658;1.312;2023-05-07T05:35:55;17.70;99.90
31729;DHT22;18309;43.658;1.312;2023-05-07T05:38:21;17.70;99.90
31729;DHT22;18309;43.658;1.312;2023-05-07T05:40:47;17.70;99.90
31729;DHT22;18309;43.658;1.312;2023-05-07T05:43:14;17.70;99.90
31729;DHT22;18309;43.658;1.312;2023-05-07T05:45:40;17.70;99.90
31729;DHT22;18309;43.658;1.312;2023-05-07T05:48:06;17.70;99.90
31729;DHT22;18309;43.658;1.312;2023-05-07T05:50:31;17.70;99.90
31729;DHT22;18309;43.658;1.312;2023-05-07T05:52:57;17.70;99.90
31729;DHT22;18309;43.658;1.312;2023-05-07T05:55:23;17.70;99.90
31729;DHT22;18309;43.658;1.312;2023-05-07T05:57:49;17.70;99.90
31729;DHT22;18309;43.658;1.312;2023-05-07T06:00:16;17.70;99.90
31729;DHT22;18309;43.658;1.312;2023-05-07T06:02:42;17.70;99.90
31729;DHT22;18309;43.658;1.312;2023-05-07T06:05:08;17.70;99.90
31729;DHT22;18309;43.658;1.312;2023-05-07T06:07:34;17.70;99.90
31729;DHT22;18309;43.658;1.312;2023-05-07T06:10:01;17.70;99.90
31729;DHT22;18309;43.658;1.312;2023-05-07T06:12:27;17.70;99.90
31729;DHT22;18309;43.658;1.312;2023-05-07T06:14:53;17.70;99.90
31729;DHT22;18309;43.658;1.312;2023-05-07T06:17:18;17.70;99.90
31729;DHT22;18309;43.658;1.312;2023-05-07T06:19:44;17.70;99.90
31729;DHT22;18309;43.658;1.312;2023-05-07T06:22:10;17.70;99.90
31729;DHT22;18309;43.658;1.312;2023-05-07T06:24:35;17.70;99.90
31729;DHT22;18309;43.658;1.312;2023-05-07T06:27:01;17.70;99.90
31729;DHT22;18309;43.658;1.312;2023-05-07T06:29:27;17.70;99.90
31729;DHT22;18309;43.658;1.312;2023-05-07T06:31:53;17.70;99.90
31729;DHT22;18309;43.658;1.312;2023-05-07T06:34:19;17.60;99.90
31729;DHT22;18309;43.658;1.312;2023-05-07T06:36:45;17.70;99.90
31729;DHT22;18309;43.658;1.312;2023-05-07T06:39:10;17.60;99.90
31729;DHT22;18309;43.658;1.312;2023-05-07T06:41:36;17.60;99.90
31729;DHT22;18309;43.658;1.312;2023-05-07T06:44:02;17.70;99.90
31729;DHT22;18309;43.658;1.312;2023-05-07T06:46:29;17.70;99.90
31729;DHT22;18309;43.658;1.312;2023-05-07T06:48:55;17.70;99.90
31729;DHT22;18309;43.658;1.312;2023-05-07T06:51:22;17.60;99.90
31729;DHT22;18309;43.658;1.312;2023-05-07T06:53:48;17.60;99.90
31729;DHT22;18309;43.658;1.312;2023-05-07T06:56:13;17.60;99.90
31729;DHT22;18309;43.658;1.312;2023-05-07T06:58:39;17.70;99.90
31729;DHT22;18309;43.658;1.312;2023-05-07T07:01:05;17.70;99.90
31729;DHT22;18309;43.658;1.312;2023-05-07T07:03:31;17.70;99.90
31729;DHT22;18309;43.658;1.312;2023-05-07T07:05:56;17.70;99.90
31729;DHT22;18309;43.658;1.312;2023-05-07T07:08:22;17.70;99.90
31729;DHT22;18309;43.658;1.312;2023-05-07T07:10:48;17.70;99.90
31729;DHT22;18309;43.658;1.312;2023-05-07T07:13:14;17.70;99.90
31729;DHT22;18309;43.658;1.312;2023-05-07T07:15:40;17.70;99.90
31729;DHT22;18309;43.658;1.312;2023-05-07T07:18:06;17.70;99.90
31729;DHT22;18309;43.658;1.312;2023-05-07T07:20:32;17.70;99.90
31729;DHT22;18309;43.658;1.312;2023-05-07T07:22:59;17.70;99.90
31729;DHT22;18309;43.658;1.312;2023-05-07T07:25:25;17.70;99.90
31729;DHT22;18309;43.658;1.312;2023-05-07T07:27:51;17.70;99.90
31729;DHT22;18309;43.658;1.312;2023-05-07T07:30:16;17.70;99.90
31729;DHT22;18309;43.658;1.312;2023-05-07T07:32:42;17.70;99.90
31729;DHT22;18309;43.658;1.312;2023-05-07T07:35:08;17.70;99.90
31729;DHT22;18309;43.658;1.312;2023-05-07T07:37:34;17.70;99.90
31729;DHT22;18309;43.658;1.312;2023-05-07T07:39:59;17.70;99.90
31729;DHT22;18309;43.658;1.312;2023-05-07T07:42:25;17.70;99.90
31729;DHT22;18309;43.658;1.312;2023-05-07T07:44:52;17.70;99.90
31729;DHT22;18309;43.658;1.312;2023-05-07T07:47:18;17.70;99.90
31729;DHT22;18309;43.658;1.312;2023-05-07T07:49:43;17.70;99.90
31729;DHT22;18309;43.658;1.312;2023-05-07T07:52:09;17.70;99.90
31729;DHT22;18309;43.658;1.312;2023-05-07T07:54:35;17.70;99.90
31729;DHT22;18309;43.658;1.312;2023-05-07T07:57:02;17.70;99.90
31729;DHT22;18309;43.658;1.312;2023-05-07T07:59:28;17.80;99.90
31729;DHT22;18309;43.658;1.312;2023-05-07T08:01:54;17.80;99.90
31729;DHT22;18309;43.658;1.312;2023-05-07T08:04:22;17.80;99.90
31729;DHT22;18309;43.658;1.312;2023-05-07T08:06:48;17.80;99.90
31729;DHT22;18309;43.658;1.312;2023-05-07T08:09:14;17.90;99.90
31729;DHT22;18309;43.658;1.312;2023-05-07T08:11:40;17.90;99.90
31729;DHT22;18309;43.658;1.312;2023-05-07T08:14:06;17.90;99.90
31729;DHT22;18309;43.658;1.312;2023-05-07T08:16:31;18.00;99.90
31729;DHT22;18309;43.658;1.312;2023-05-07T08:18:57;18.00;99.90
31729;DHT22;18309;43.658;1.312;2023-05-07T08:21:23;18.00;99.90
31729;DHT22;18309;43.658;1.312;2023-05-07T08:23:49;18.10;99.90
31729;DHT22;18309;43.658;1.312;2023-05-07T08:26:14;18.10;99.90
31729;DHT22;18309;43.658;1.312;2023-05-07T08:28:40;18.10;99.90
31729;DHT22;18309;43.658;1.312;2023-05-07T08:31:06;18.20;99.90
31729;DHT22;18309;43.658;1.312;2023-05-07T08:33:31;18.20;99.90
31729;DHT22;18309;43.658;1.312;2023-05-07T08:35:58;18.30;99.90
31729;DHT22;18309;43.658;1.312;2023-05-07T08:38:24;18.30;99.90
31729;DHT22;18309;43.658;1.312;2023-05-07T08:40:49;18.30;99.90
31729;DHT22;18309;43.658;1.312;2023-05-07T08:43:15;18.30;99.90
31729;DHT22;18309;43.658;1.312;2023-05-07T08:45:42;18.40;99.90
31729;DHT22;18309;43.658;1.312;2023-05-07T08:48:15;18.40;99.90
31729;DHT22;18309;43.658;1.312;2023-05-07T08:50:41;18.40;99.90
31729;DHT22;18309;43.658;1.312;2023-05-07T08:53:07;18.40;99.90
31729;DHT22;18309;43.658;1.312;2023-05-07T08:55:33;18.50;99.90
31729;DHT22;18309;43.658;1.312;2023-05-07T08:58:00;18.50;99.80
31729;DHT22;18309;43.658;1.312;2023-05-07T09:00:25;18.50;99.40
31729;DHT22;18309;43.658;1.312;2023-05-07T09:02:53;18.60;99.40
31729;DHT22;18309;43.658;1.312;2023-05-07T09:05:19;18.60;99.30
31729;DHT22;18309;43.658;1.312;2023-05-07T09:07:45;18.70;99.20
31729;DHT22;18309;43.658;1.312;2023-05-07T09:10:12;18.70;99.10
31729;DHT22;18309;43.658;1.312;2023-05-07T09:12:38;18.70;99.00
31729;DHT22;18309;43.658;1.312;2023-05-07T09:15:05;18.70;99.00
31729;DHT22;18309;43.658;1.312;2023-05-07T09:17:31;18.80;98.70
31729;DHT22;18309;43.658;1.312;2023-05-07T09:20:02;18.80;98.70
31729;DHT22;18309;43.658;1.312;2023-05-07T09:22:40;18.80;98.80
31729;DHT22;18309;43.658;1.312;2023-05-07T09:25:07;18.80;98.70
31729;DHT22;18309;43.658;1.312;2023-05-07T09:27:33;18.80;98.70
31729;DHT22;18309;43.658;1.312;2023-05-07T09:29:59;18.90;98.70
31729;DHT22;18309;43.658;1.312;2023-05-07T09:32:25;18.90;98.70
31729;DHT22;18309;43.658;1.312;2023-05-07T09:34:52;18.90;98.80
31729;DHT22;18309;43.658;1.312;2023-05-07T09:37:18;18.90;98.80
31729;DHT22;18309;43.658;1.312;2023-05-07T09:39:50;18.90;99.00
31729;DHT22;18309;43.658;1.312;2023-05-07T09:42:23;18.90;99.30
31729;DHT22;18309;43.658;1.312;2023-05-07T09:44:50;18.90;99.60
31729;DHT22;18309;43.658;1.312;2023-05-07T09:47:19;18.90;99.70
31729;DHT22;18309;43.658;1.312;2023-05-07T09:49:50;18.80;99.90
31729;DHT22;18309;43.658;1.312;2023-05-07T09:52:17;18.90;99.90
31729;DHT22;18309;43.658;1.312;2023-05-07T09:54:43;18.90;99.90
31729;DHT22;18309;43.658;1.312;2023-05-07T09:57:11;18.80;99.90
31729;DHT22;18309;43.658;1.312;2023-05-07T09:59:37;18.80;99.90
31729;DHT22;18309;43.658;1.312;2023-05-07T10:02:04;18.90;99.90
31729;DHT22;18309;43.658;1.312;2023-05-07T10:04:31;18.90;99.90
31729;DHT22;18309;43.658;1.312;2023-05-07T10:06:58;18.80;99.90
31729;DHT22;18309;43.658;1.312;2023-05-07T10:09:25;18.80;99.90
31729;DHT22;18309;43.658;1.312;2023-05-07T10:11:54;18.80;99.90
31729;DHT22;18309;43.658;1.312;2023-05-07T10:14:21;18.80;99.90
31729;DHT22;18309;43.658;1.312;2023-05-07T10:16:47;18.90;99.90
31729;DHT22;18309;43.658;1.312;2023-05-07T10:19:14;18.80;99.90
31729;DHT22;18309;43.658;1.312;2023-05-07T10:21:44;18.80;99.90
31729;DHT22;18309;43.658;1.312;2023-05-07T10:24:33;18.90;99.90
31729;DHT22;18309;43.658;1.312;2023-05-07T10:27:01;18.90;99.90
31729;DHT22;18309;43.658;1.312;2023-05-07T10:32:30;18.90;99.90
31729;DHT22;18309;43.658;1.312;2023-05-07T10:35:01;18.90;99.90
31729;DHT22;18309;43.658;1.312;2023-05-07T10:37:28;18.80;99.90
31729;DHT22;18309;43.658;1.312;2023-05-07T10:39:54;18.90;99.90
31729;DHT22;18309;43.658;1.312;2023-05-07T10:42:20;18.90;99.90
31729;DHT22;18309;43.658;1.312;2023-05-07T10:44:46;18.90;99.90
31729;DHT22;18309;43.658;1.312;2023-05-07T10:47:13;19.00;99.90
31729;DHT22;18309;43.658;1.312;2023-05-07T10:52:23;19.00;99.90
31729;DHT22;18309;43.658;1.312;2023-05-07T10:57:40;19.00;99.90
31729;DHT22;18309;43.658;1.312;2023-05-07T11:05:30;19.20;99.80
31729;DHT22;18309;43.658;1.312;2023-05-07T11:08:03;19.20;99.90
31729;DHT22;18309;43.658;1.312;2023-05-07T11:10:51;19.30;99.90
31729;DHT22;18309;43.658;1.312;2023-05-07T11:13:41;19.30;99.20
31729;DHT22;18309;43.658;1.312;2023-05-07T11:16:09;19.40;98.90
31729;DHT22;18309;43.658;1.312;2023-05-07T11:18:55;19.40;98.70
31729;DHT22;18309;43.658;1.312;2023-05-07T11:21:37;19.40;98.60
31729;DHT22;18309;43.658;1.312;2023-05-07T11:24:05;19.50;98.50
31729;DHT22;18309;43.658;1.312;2023-05-07T11:26:48;19.60;98.70
31729;DHT22;18309;43.658;1.312;2023-05-07T11:29:16;19.60;98.50
31729;DHT22;18309;43.658;1.312;2023-05-07T11:31:42;19.70;98.40
31729;DHT22;18309;43.658;1.312;2023-05-07T11:34:08;19.70;97.00
31729;DHT22;18309;43.658;1.312;2023-05-07T11:36:36;19.70;97.00
31729;DHT22;18309;43.658;1.312;2023-05-07T11:39:23;19.80;97.00
31729;DHT22;18309;43.658;1.312;2023-05-07T11:41:49;19.90;96.50
31729;DHT22;18309;43.658;1.312;2023-05-07T11:44:14;19.90;96.20
31729;DHT22;18309;43.658;1.312;2023-05-07T11:46:45;20.00;96.20
31729;DHT22;18309;43.658;1.312;2023-05-07T11:49:11;20.00;96.30
31729;DHT22;18309;43.658;1.312;2023-05-07T11:51:36;20.10;96.20
31729;DHT22;18309;43.658;1.312;2023-05-07T11:54:04;20.10;96.30
31729;DHT22;18309;43.658;1.312;2023-05-07T11:56:34;20.10;96.10
31729;DHT22;18309;43.658;1.312;2023-05-07T11:59:00;20.20;95.60
31729;DHT22;18309;43.658;1.312;2023-05-07T12:01:26;20.20;95.50
31729;DHT22;18309;43.658;1.312;2023-05-07T12:03:52;20.20;95.70
31729;DHT22;18309;43.658;1.312;2023-05-07T12:06:18;20.30;95.80
31729;DHT22;18309;43.658;1.312;2023-05-07T12:08:45;20.30;95.50
31729;DHT22;18309;43.658;1.312;2023-05-07T12:11:16;20.30;95.20
31729;DHT22;18309;43.658;1.312;2023-05-07T12:13:47;20.40;94.80
31729;DHT22;18309;43.658;1.312;2023-05-07T12:16:14;20.40;94.80
31729;DHT22;18309;43.658;1.312;2023-05-07T12:18:40;20.40;94.70
31729;DHT22;18309;43.658;1.312;2023-05-07T12:21:06;20.50;95.00
31729;DHT22;18309;43.658;1.312;2023-05-07T12:23:34;20.50;94.60
31729;DHT22;18309;43.658;1.312;2023-05-07T12:26:00;20.50;94.40
31729;DHT22;18309;43.658;1.312;2023-05-07T12:28:26;20.60;94.30
31729;DHT22;18309;43.658;1.312;2023-05-07T12:30:52;20.60;94.50
31729;DHT22;18309;43.658;1.312;2023-05-07T12:33:19;20.60;94.50
31729;DHT22;18309;43.658;1.312;2023-05-07T12:35:48;20.60;94.50
31729;DHT22;18309;43.658;1.312;2023-05-07T12:38:15;20.60;94.00
31729;DHT22;18309;43.658;1.312;2023-05-07T12:40:49;20.70;93.70
31729;DHT22;18309;43.658;1.312;2023-05-07T12:43:25;20.70;93.60
31729;DHT22;18309;43.658;1.312;2023-05-07T12:45:53;20.70;92.80
31729;DHT22;18309;43.658;1.312;2023-05-07T12:48:20;20.80;92.40
31729;DHT22;18309;43.658;1.312;2023-05-07T12:50:49;20.80;92.80
31729;DHT22;18309;43.658;1.312;2023-05-07T12:53:15;20.80;93.20
31729;DHT22;18309;43.658;1.312;2023-05-07T12:55:48;20.90;93.40
31729;DHT22;18309;43.658;1.312;2023-05-07T12:58:19;20.90;93.10
31729;DHT22;18309;43.658;1.312;2023-05-07T13:00:48;21.00;92.80
31729;DHT22;18309;43.658;1.312;2023-05-07T13:03:22;21.00;92.90
31729;DHT22;18309;43.658;1.312;2023-05-07T13:05:49;21.10;92.20
31729;DHT22;18309;43.658;1.312;2023-05-07T13:08:30;21.10;92.40
31729;DHT22;18309;43.658;1.312;2023-05-07T13:10:57;21.10;92.60
31729;DHT22;18309;43.658;1.312;2023-05-07T13:13:23;21.20;92.10
31729;DHT22;18309;43.658;1.312;2023-05-07T13:15:49;21.30;92.20
31729;DHT22;18309;43.658;1.312;2023-05-07T13:18:14;21.40;91.90
31729;DHT22;18309;43.658;1.312;2023-05-07T13:20:40;21.40;92.00
31729;DHT22;18309;43.658;1.312;2023-05-07T13:23:06;21.50;91.80
31729;DHT22;18309;43.658;1.312;2023-05-07T13:25:32;21.50;91.70
31729;DHT22;18309;43.658;1.312;2023-05-07T13:27:57;21.60;91.70
31729;DHT22;18309;43.658;1.312;2023-05-07T13:30:23;21.50;91.90
31729;DHT22;18309;43.658;1.312;2023-05-07T13:32:49;21.60;91.90
31729;DHT22;18309;43.658;1.312;2023-05-07T13:35:16;21.60;91.70
31729;DHT22;18309;43.658;1.312;2023-05-07T13:37:42;21.70;91.20
31729;DHT22;18309;43.658;1.312;2023-05-07T13:40:08;21.60;91.40
31729;DHT22;18309;43.658;1.312;2023-05-07T13:42:34;21.70;91.80
31729;DHT22;18309;43.658;1.312;2023-05-07T13:44:59;21.70;91.40
31729;DHT22;18309;43.658;1.312;2023-05-07T13:47:26;21.60;91.30
31729;DHT22;18309;43.658;1.312;2023-05-07T13:49:51;21.70;91.60
31729;DHT22;18309;43.658;1.312;2023-05-07T13:52:17;21.70;91.80
31729;DHT22;18309;43.658;1.312;2023-05-07T13:54:43;21.70;91.70
31729;DHT22;18309;43.658;1.312;2023-05-07T13:57:09;21.70;92.00
31729;DHT22;18309;43.658;1.312;2023-05-07T13:59:35;21.80;92.00
31729;DHT22;18309;43.658;1.312;2023-05-07T14:02:00;21.80;92.30
31729;DHT22;18309;43.658;1.312;2023-05-07T14:04:26;21.80;92.00
31729;DHT22;18309;43.658;1.312;2023-05-07T14:06:52;22.00;91.70
31729;DHT22;18309;43.658;1.312;2023-05-07T14:09:17;22.10;91.10
31729;DHT22;18309;43.658;1.312;2023-05-07T14:11:43;22.20;90.40
31729;DHT22;18309;43.658;1.312;2023-05-07T14:14:09;22.30;90.50
31729;DHT22;18309;43.658;1.312;2023-05-07T14:16:37;22.50;90.20
31729;DHT22;18309;43.658;1.312;2023-05-07T14:19:03;22.60;90.50
31729;DHT22;18309;43.658;1.312;2023-05-07T14:21:29;22.70;90.10
31729;DHT22;18309;43.658;1.312;2023-05-07T14:23:56;22.90;87.90
31729;DHT22;18309;43.658;1.312;2023-05-07T14:26:22;23.00;87.50
31729;DHT22;18309;43.658;1.312;2023-05-07T14:28:48;23.10;87.50
31729;DHT22;18309;43.658;1.312;2023-05-07T14:31:14;23.10;87.60
31729;DHT22;18309;43.658;1.312;2023-05-07T14:33:40;23.30;86.40
31729;DHT22;18309;43.658;1.312;2023-05-07T14:36:05;23.40;86.30
31729;DHT22;18309;43.658;1.312;2023-05-07T14:38:31;23.40;86.20
31729;DHT22;18309;43.658;1.312;2023-05-07T14:40:58;23.50;86.40
31729;DHT22;18309;43.658;1.312;2023-05-07T14:43:24;23.50;86.70
31729;DHT22;18309;43.658;1.312;2023-05-07T14:45:49;23.50;87.60
31729;DHT22;18309;43.658;1.312;2023-05-07T14:48:15;23.50;88.50
31729;DHT22;18309;43.658;1.312;2023-05-07T14:50:42;23.50;88.00
31729;DHT22;18309;43.658;1.312;2023-05-07T14:53:08;23.50;87.20
31729;DHT22;18309;43.658;1.312;2023-05-07T14:55:34;23.50;86.60
31729;DHT22;18309;43.658;1.312;2023-05-07T14:58:00;23.50;86.60
31729;DHT22;18309;43.658;1.312;2023-05-07T15:00:26;23.40;86.30
31729;DHT22;18309;43.658;1.312;2023-05-07T15:02:52;23.40;86.80
31729;DHT22;18309;43.658;1.312;2023-05-07T15:05:18;23.40;87.50
31729;DHT22;18309;43.658;1.312;2023-05-07T15:07:44;23.30;88.40
31729;DHT22;18309;43.658;1.312;2023-05-07T15:10:10;23.30;88.20
31729;DHT22;18309;43.658;1.312;2023-05-07T15:12:36;23.30;88.50
31729;DHT22;18309;43.658;1.312;2023-05-07T15:15:03;23.30;88.90
31729;DHT22;18309;43.658;1.312;2023-05-07T15:17:29;23.20;89.60
31729;DHT22;18309;43.658;1.312;2023-05-07T15:19:55;23.30;88.40
31729;DHT22;18309;43.658;1.312;2023-05-07T15:22:21;23.30;88.30
31729;DHT22;18309;43.658;1.312;2023-05-07T15:24:46;23.30;88.90
31729;DHT22;18309;43.658;1.312;2023-05-07T15:27:12;23.30;91.90
31729;DHT22;18309;43.658;1.312;2023-05-07T15:29:38;23.30;93.50
31729;DHT22;18309;43.658;1.312;2023-05-07T15:32:04;23.20;94.60
31729;DHT22;18309;43.658;1.312;2023-05-07T15:34:38;23.20;94.70
31729;DHT22;18309;43.658;1.312;2023-05-07T15:37:03;23.20;93.80
31729;DHT22;18309;43.658;1.312;2023-05-07T15:39:30;23.10;93.60
31729;DHT22;18309;43.658;1.312;2023-05-07T15:41:56;23.10;93.80